createdAt,value
2018-11-04T00:00:15.447Z,12.28
2018-11-04T00:05:33.989Z,10.47
2018-11-04T00:10:52.514Z,10.47
2018-11-04T00:16:11.028Z,11.03
2018-11-04T00:21:29.499Z,11.53
2018-11-04T00:26:48.032Z,10.93
2018-11-04T00:32:06.666Z,10.73
2018-11-04T00:37:25.246Z,10.50
2018-11-04T00:42:43.749Z,11.00
2018-11-04T00:48:02.270Z,10.10
2018-11-04T00:53:21.210Z,10.63
2018-11-04T00:58:39.715Z,11.47
2018-11-04T01:03:58.247Z,11.97
2018-11-04T01:09:16.880Z,11.07
2018-11-04T01:14:35.332Z,10.93
2018-11-04T01:19:53.900Z,11.47
2018-11-04T01:25:12.442Z,10.63
2018-11-04T01:30:37.667Z,12.55
2018-11-04T01:35:56.181Z,11.80
2018-11-04T01:41:14.704Z,13.10
2018-11-04T01:46:33.190Z,12.17
2018-11-04T01:51:51.711Z,11.83
2018-11-04T01:57:10.258Z,12.40
2018-11-04T02:02:28.767Z,12.93
2018-11-04T02:07:47.279Z,13.00
2018-11-04T02:13:06.034Z,14.13
2018-11-04T02:18:24.575Z,14.73
2018-11-04T02:23:43.181Z,13.77
2018-11-04T02:29:01.691Z,14.67
2018-11-04T02:34:20.203Z,14.17
2018-11-04T02:39:38.726Z,15.03
2018-11-04T02:44:57.320Z,14.70
2018-11-04T02:50:15.901Z,14.47
2018-11-04T02:55:34.425Z,15.27
2018-11-04T03:00:52.911Z,15.70
2018-11-04T03:06:11.426Z,14.33
2018-11-04T03:11:29.993Z,14.55
2018-11-04T03:16:48.552Z,15.60
2018-11-04T03:22:07.380Z,16.37
2018-11-04T03:27:25.901Z,16.25
2018-11-04T03:32:44.411Z,16.30
2018-11-04T03:38:02.888Z,16.85
2018-11-04T03:43:21.564Z,17.63
2018-11-04T03:48:40.061Z,18.90
2018-11-04T03:53:58.555Z,22.17
2018-11-04T03:59:17.055Z,24.37
2018-11-04T04:04:35.631Z,25.27
2018-11-04T04:09:54.183Z,32.33
2018-11-04T04:15:12.739Z,27.42
2018-11-04T04:20:31.328Z,17.03
2018-11-04T04:25:49.849Z,17.33
2018-11-04T04:31:08.395Z,17.93
2018-11-04T04:36:26.916Z,18.80
2018-11-04T04:41:45.407Z,20.47
2018-11-04T04:47:03.931Z,23.37
2018-11-04T04:52:22.455Z,24.13
2018-11-04T04:57:40.935Z,22.57
2018-11-04T05:02:59.462Z,25.17
2018-11-04T05:08:18.007Z,33.10
2018-11-04T05:13:36.538Z,29.67
2018-11-04T05:18:55.051Z,29.93
2018-11-04T05:24:13.544Z,25.43
2018-11-04T05:29:32.070Z,24.33
2018-11-04T05:34:50.564Z,24.23
2018-11-04T05:40:09.298Z,24.47
2018-11-04T05:45:27.836Z,22.83
2018-11-04T05:50:46.308Z,24.53
2018-11-04T05:56:04.948Z,26.43
2018-11-04T06:01:23.579Z,25.33
2018-11-04T06:06:42.124Z,25.37
2018-11-04T06:12:00.659Z,26.23
2018-11-04T06:17:19.333Z,24.70
2018-11-04T06:22:37.850Z,26.12
2018-11-04T06:27:56.368Z,26.40
2018-11-04T06:33:15.582Z,26.57
2018-11-04T06:38:34.153Z,25.37
2018-11-04T06:43:52.659Z,25.50
2018-11-04T06:49:11.207Z,24.90
2018-11-04T06:54:29.754Z,25.33
2018-11-04T06:59:49.449Z,25.67
2018-11-04T07:05:08.014Z,24.40
2018-11-04T07:10:27.144Z,24.40
2018-11-04T07:15:46.773Z,24.60
2018-11-04T07:21:05.671Z,27.43
2018-11-04T07:26:24.210Z,25.67
2018-11-04T07:31:43.439Z,24.67
2018-11-04T07:37:01.987Z,25.50
2018-11-04T07:42:20.603Z,26.40
2018-11-04T07:47:39.295Z,26.87
2018-11-04T07:52:57.878Z,26.13
2018-11-04T07:58:16.441Z,26.47
2018-11-04T08:03:34.986Z,27.07
2018-11-04T08:08:53.924Z,27.50
2018-11-04T08:14:12.469Z,26.80
2018-11-04T08:19:31.015Z,26.77
2018-11-04T08:24:49.562Z,24.70
2018-11-04T08:30:09.132Z,26.57
2018-11-04T08:35:27.622Z,26.83
2018-11-04T08:40:46.222Z,26.77
2018-11-04T08:46:04.787Z,25.07
2018-11-04T08:51:23.322Z,24.80
2018-11-04T08:56:41.858Z,26.63
2018-11-04T09:02:00.349Z,26.53
2018-11-04T09:07:18.965Z,26.33
2018-11-04T09:12:37.758Z,25.47
2018-11-04T09:17:57.924Z,26.03
2018-11-04T09:23:17.034Z,25.73
2018-11-04T09:28:36.210Z,25.67
2018-11-04T09:33:54.718Z,25.03
2018-11-04T09:39:13.391Z,25.20
2018-11-04T09:44:31.881Z,27.00
2018-11-04T09:49:50.413Z,25.50
2018-11-04T09:55:10.005Z,24.70
2018-11-04T10:00:28.768Z,27.13
2018-11-04T10:05:48.876Z,26.30
2018-11-04T10:11:07.458Z,26.10
2018-11-04T10:16:26.031Z,25.57
2018-11-04T10:21:44.486Z,25.50
2018-11-04T10:27:03.136Z,24.70
2018-11-04T10:32:21.672Z,25.27
2018-11-04T10:37:41.239Z,25.93
2018-11-04T10:42:59.911Z,24.37
2018-11-04T10:48:19.209Z,24.63
2018-11-04T10:53:37.787Z,23.67
2018-11-04T10:58:56.427Z,22.80
2018-11-04T11:04:16.143Z,23.67
2018-11-04T11:09:34.766Z,24.47
2018-11-04T11:14:53.476Z,23.63
2018-11-04T11:20:13.221Z,21.60
2018-11-04T11:25:32.282Z,23.90
2018-11-04T11:30:51.469Z,22.47
2018-11-04T11:36:10.222Z,22.03
2018-11-04T11:41:28.773Z,23.47
2018-11-04T11:46:47.915Z,24.27
2018-11-04T11:52:07.845Z,24.13
2018-11-04T11:57:26.955Z,22.47
2018-11-04T12:02:45.481Z,24.97
2018-11-04T12:08:04.075Z,22.67
2018-11-04T12:13:22.637Z,23.20
2018-11-04T12:18:42.759Z,23.53
2018-11-04T12:24:01.466Z,24.33
2018-11-04T12:29:20.140Z,22.17
2018-11-04T12:34:38.679Z,23.43
2018-11-04T12:39:58.136Z,20.73
2018-11-04T12:45:16.772Z,21.55
2018-11-04T12:50:35.872Z,20.80
2018-11-04T12:55:54.549Z,21.57
2018-11-04T13:01:13.145Z,20.77
2018-11-04T13:06:31.667Z,20.77
2018-11-04T13:11:50.178Z,20.77
2018-11-04T13:17:08.831Z,16.67
2018-11-04T13:22:27.551Z,20.10
2018-11-04T13:27:46.110Z,20.17
2018-11-04T13:33:04.947Z,19.57
2018-11-04T13:38:23.491Z,20.93
2018-11-04T13:43:41.999Z,18.85
2018-11-04T13:49:00.551Z,18.30
2018-11-04T13:54:19.104Z,20.40
2018-11-04T13:59:37.905Z,19.17
2018-11-04T14:04:56.431Z,20.20
2018-11-04T14:10:16.046Z,18.47
2018-11-04T14:15:34.535Z,18.70
2018-11-04T14:20:53.059Z,18.63
2018-11-04T14:26:13.367Z,18.30
2018-11-04T14:31:31.951Z,18.87
2018-11-04T14:36:50.593Z,18.30
2018-11-04T14:42:09.185Z,18.23
2018-11-04T14:47:27.735Z,17.13
2018-11-04T14:52:46.581Z,16.13
2018-11-04T14:58:05.628Z,17.17
2018-11-04T15:03:25.547Z,17.57
2018-11-04T15:08:44.189Z,17.53
2018-11-04T15:14:03.395Z,16.30
2018-11-04T15:19:22.471Z,17.03
2018-11-04T15:24:40.988Z,17.57
2018-11-04T15:29:59.520Z,15.87
2018-11-04T15:35:18.534Z,16.77
2018-11-04T15:40:37.987Z,16.57
2018-11-04T15:45:56.497Z,15.40
2018-11-04T15:51:15.078Z,16.90
2018-11-04T15:56:33.707Z,16.27
2018-11-04T16:01:52.199Z,15.70
2018-11-04T16:07:10.846Z,13.50
2018-11-04T16:12:29.875Z,15.97
2018-11-04T16:17:48.448Z,14.53
2018-11-04T16:23:07.000Z,14.93
2018-11-04T16:28:25.604Z,14.10
2018-11-04T16:33:44.179Z,13.83
2018-11-04T16:39:02.723Z,13.37
2018-11-04T16:44:21.579Z,14.40
2018-11-04T16:49:40.025Z,12.53
2018-11-04T16:54:58.678Z,13.00
2018-11-04T17:00:17.492Z,12.25
2018-11-04T17:05:36.590Z,11.87
2018-11-04T17:10:55.191Z,11.47
2018-11-04T17:16:15.337Z,12.17
2018-11-04T17:21:34.570Z,12.87
2018-11-04T17:26:53.293Z,12.63
2018-11-04T17:32:12.116Z,12.03
2018-11-04T17:37:30.662Z,12.07
2018-11-04T17:42:49.186Z,12.13
2018-11-04T17:48:07.726Z,13.33
2018-11-04T17:53:26.462Z,13.22
2018-11-04T17:58:44.982Z,13.00
2018-11-04T18:04:03.814Z,12.10
2018-11-04T18:09:22.311Z,12.57
2018-11-04T18:14:45.284Z,12.43
2018-11-04T18:20:04.132Z,12.00
2018-11-04T18:25:23.245Z,11.75
2018-11-04T18:30:41.807Z,12.23
2018-11-04T18:36:00.338Z,12.30
2018-11-04T18:41:18.846Z,11.47
2018-11-04T18:46:37.424Z,12.10
2018-11-04T18:51:56.060Z,11.35
2018-11-04T18:57:14.588Z,9.83
2018-11-04T19:02:33.299Z,10.60
2018-11-04T19:07:51.832Z,11.00
2018-11-04T19:13:10.413Z,10.28
2018-11-04T19:18:28.990Z,10.88
2018-11-04T19:23:47.566Z,11.17
2018-11-04T19:29:06.180Z,12.28
2018-11-04T19:34:24.859Z,11.17
2018-11-04T19:39:44.207Z,12.50
2018-11-04T19:45:02.803Z,11.47
2018-11-04T19:50:21.692Z,12.20
2018-11-04T19:55:40.261Z,12.03
2018-11-04T20:00:58.788Z,10.80
2018-11-04T20:06:17.593Z,12.50
2018-11-04T20:11:36.247Z,12.18
2018-11-04T20:16:55.604Z,11.43
2018-11-04T20:22:14.144Z,11.97
2018-11-04T20:27:32.737Z,12.90
2018-11-04T20:32:56.758Z,11.83
2018-11-04T20:38:15.696Z,11.13
2018-11-04T20:43:34.865Z,12.53
2018-11-04T20:48:58.739Z,11.50
2018-11-04T20:54:17.487Z,11.43
2018-11-04T20:59:36.022Z,13.20
2018-11-04T21:04:55.222Z,11.63
2018-11-04T21:10:14.942Z,11.75
2018-11-04T21:15:36.642Z,12.10
2018-11-04T21:20:55.306Z,11.50
2018-11-04T21:26:14.800Z,11.57
2018-11-04T21:31:35.239Z,12.70
2018-11-04T21:36:53.914Z,12.20
2018-11-04T21:42:14.837Z,11.30
2018-11-04T21:47:33.649Z,11.03
2018-11-04T21:52:52.738Z,11.03
2018-11-04T21:58:11.863Z,12.00
2018-11-04T22:03:30.478Z,13.90
2018-11-04T22:08:49.045Z,12.73
2018-11-04T22:14:07.580Z,12.77
2018-11-04T22:19:26.111Z,11.70
2018-11-04T22:24:44.896Z,12.03
2018-11-04T22:30:04.778Z,12.73
2018-11-04T22:35:23.414Z,12.73
2018-11-04T22:40:45.731Z,11.80
2018-11-04T22:46:04.621Z,11.17
2018-11-04T22:51:23.158Z,11.73
2018-11-04T22:56:41.733Z,11.70
2018-11-04T23:02:00.190Z,12.07
2018-11-04T23:07:18.662Z,11.47
2018-11-04T23:12:37.611Z,12.53
2018-11-04T23:17:56.182Z,14.10
2018-11-04T23:23:14.705Z,13.80
2018-11-04T23:28:33.217Z,12.27
2018-11-04T23:33:51.746Z,12.13
2018-11-04T23:39:10.917Z,12.23
2018-11-04T23:44:29.448Z,13.07
2018-11-04T23:49:47.963Z,11.75
2018-11-04T23:55:08.287Z,12.67
